Time;durP1;ratioP1;P1;durP2;ratioP2;P2;SDS_P1;SDS_P2;PMS_P1;PMS_P2;Temp;Humidity;BMP_temperature;BMP_pressure;BME280_temperature;BME280_humidity;BME280_pressure;Samples;Min_cycle;Max_cycle;Signal;HPM_P1;HPM_P2
2022/02/18 00:02:23;;;;;;;3.12;0.65;;;;;;;6.46;72.66;97912.33;1722417;82;21014;-64
2022/02/18 00:04:49;;;;;;;1.95;0.88;;;;;;;6.47;72.74;97912.63;1722325;82;21025;-61
2022/02/18 00:07:15;;;;;;;7.45;1.65;;;;;;;6.45;73.08;97913.37;1732250;81;21056;-62
2022/02/18 00:09:43;;;;;;;3.20;1.53;;;;;;;6.40;73.35;97910.88;1726162;82;21565;-62
2022/02/18 00:12:11;;;;;;;2.10;1.02;;;;;;;6.36;73.68;97914.97;1742116;80;21480;-62
2022/02/18 00:14:42;;;;;;;3.50;0.90;;;;;;;6.33;73.91;97911.95;1713819;83;21026;-62
2022/02/18 00:17:08;;;;;;;1.17;1.07;;;;;;;6.30;74.23;97911.89;1698433;84;21533;-63
2022/02/18 00:19:35;;;;;;;1.42;1.32;;;;;;;6.26;74.31;97912.04;1727454;82;21064;-63
2022/02/18 00:22:03;;;;;;;1.83;1.37;;;;;;;6.28;74.46;97912.63;1729660;82;20993;-63
2022/02/18 00:24:30;;;;;;;1.10;1.00;;;;;;;6.32;74.41;97915.13;1731175;82;20953;-63
2022/02/18 00:26:56;;;;;;;1.77;1.07;;;;;;;6.32;74.67;97924.38;1729428;82;21008;-63
2022/02/18 00:29:22;;;;;;;1.65;0.75;;;;;;;6.27;75.23;97925.55;1725178;82;20975;-62
2022/02/18 00:31:50;;;;;;;1.47;0.70;;;;;;;6.19;75.56;97927.97;1727195;82;21520;-62
2022/02/18 00:34:18;;;;;;;3.87;1.40;;;;;;;6.11;76.00;97931.43;1700835;82;21005;-63
2022/02/18 00:36:44;;;;;;;1.27;0.70;;;;;;;6.13;76.24;97932.02;1677423;83;21086;-63
2022/02/18 00:39:10;;;;;;;1.22;0.68;;;;;;;6.22;76.44;97928.06;1692691;83;21026;-63
2022/02/18 00:41:36;;;;;;;1.22;0.93;;;;;;;6.29;76.58;97930.63;1692703;83;21007;-64
2022/02/18 00:44:04;;;;;;;1.33;1.17;;;;;;;6.27;76.87;97936.65;1709474;83;21000;-65
2022/02/18 00:46:31;;;;;;;0.60;0.53;;;;;;;6.17;77.33;97931.34;1711774;82;21025;-63
2022/02/18 00:48:57;;;;;;;2.65;1.10;;;;;;;6.09;77.73;97944.06;1724938;82;21127;-62
2022/02/18 00:51:23;;;;;;;1.05;0.85;;;;;;;6.03;78.13;97938.61;1717881;82;21060;-63
2022/02/18 00:53:49;;;;;;;2.52;0.70;;;;;;;6.04;78.21;97947.34;1722871;82;20997;-63
2022/02/18 00:56:16;;;;;;;1.02;0.55;;;;;;;6.12;78.20;97944.93;1724789;81;20984;-63
2022/02/18 00:58:42;;;;;;;;;;;;;;;6.14;78.05;97945.03;1719046;82;21088;-62
2022/02/18 01:01:11;;;;;;;1.00;0.77;;;;;;;6.12;78.37;97949.73;1724217;82;20109;-62
2022/02/18 01:03:37;;;;;;;1.30;0.90;;;;;;;6.02;78.63;97957.34;1722593;82;21053;-61
2022/02/18 01:06:04;;;;;;;4.00;1.50;;;;;;;5.95;79.11;97953.44;1705693;82;22465;-64
2022/02/18 01:08:31;;;;;;;1.25;1.15;;;;;;;5.89;79.22;97953.45;1709162;82;21069;-62
2022/02/18 01:10:57;;;;;;;2.33;1.35;;;;;;;5.86;79.55;97960.00;1720704;82;21364;-63
2022/02/18 01:13:23;;;;;;;3.62;1.65;;;;;;;5.85;79.64;97968.41;1745513;81;20982;-65
2022/02/18 01:15:49;;;;;;;1.80;1.00;;;;;;;5.84;79.92;97974.75;1730325;81;21625;-61
2022/02/18 01:18:20;;;;;;;2.67;1.17;;;;;;;5.84;80.16;97976.59;1721184;82;21014;-61
2022/02/18 01:20:44;;;;;;;1.20;0.90;;;;;;;5.79;80.35;97986.47;1732702;81;21020;-62
2022/02/18 01:23:10;;;;;;;1.85;1.37;;;;;;;5.71;80.93;97986.74;1722200;82;21092;-62
2022/02/18 01:25:38;;;;;;;3.60;1.90;;;;;;;5.61;81.58;97987.22;1718561;82;21003;-63
2022/02/18 01:28:05;;;;;;;2.42;1.50;;;;;;;5.61;82.03;97990.36;1717747;82;21041;-62
2022/02/18 01:30:33;;;;;;;1.98;1.80;;;;;;;5.60;81.95;97996.16;1699712;82;21009;-62
2022/02/18 01:32:59;;;;;;;1.30;1.20;;;;;;;5.62;82.26;98005.20;1719008;82;21438;-62
2022/02/18 01:35:26;;;;;;;1.37;1.27;;;;;;;5.60;82.73;98013.86;1697102;83;21750;-64
2022/02/18 01:37:53;;;;;;;1.32;0.93;;;;;;;5.53;83.02;98019.69;1691773;83;21182;-72
2022/02/18 01:40:22;;;;;;;;;;;;;;;5.07;83.33;97960.30;1700179;82;21074;-64
2022/02/18 01:42:49;;;;;;;1.60;0.90;;;;;;;5.45;83.37;98023.39;1704919;84;20219;-68
2022/02/18 01:45:16;;;;;;;0.77;0.60;;;;;;;5.48;83.34;98033.52;1729422;81;21006;-61
2022/02/18 01:47:42;;;;;;;1.37;0.90;;;;;;;5.55;83.38;98034.82;1753651;81;21434;-61
2022/02/18 01:50:09;;;;;;;1.07;0.85;;;;;;;5.53;83.34;98032.38;1739321;82;21582;-63
2022/02/18 01:52:42;;;;;;;1.23;0.87;;;;;;;5.47;83.64;98035.88;1733887;81;21086;-63
2022/02/18 01:55:12;;;;;;;2.13;0.93;;;;;;;5.42;83.79;98044.94;1744043;81;21123;-61
2022/02/18 01:57:46;;;;;;;1.53;1.07;;;;;;;5.44;84.01;98053.47;1758502;79;20982;-62
2022/02/18 02:00:19;;;;;;;1.60;1.50;;;;;;;5.49;83.71;98053.66;1753178;79;20960;-62
2022/02/18 02:02:47;;;;;;;2.30;1.10;;;;;;;5.50;83.62;98062.38;1738157;82;21026;-63
2022/02/18 02:05:13;;;;;;;3.17;1.80;;;;;;;5.44;84.20;98060.91;1732538;82;21070;-62
2022/02/18 02:07:43;;;;;;;1.80;1.17;;;;;;;5.35;84.34;98065.30;1728619;81;21087;-61
2022/02/18 02:10:14;;;;;;;1.50;1.40;;;;;;;5.28;84.84;98076.42;1726024;82;21494;-62
2022/02/18 02:12:50;;;;;;;1.73;1.47;;;;;;;5.29;85.05;98076.70;1702662;82;21062;-63
2022/02/18 02:15:26;;;;;;;0.70;0.70;;;;;;;5.37;85.05;98090.50;1741752;80;21099;-62
2022/02/18 02:17:53;;;;;;;1.00;0.60;;;;;;;5.43;84.92;98100.74;1743012;80;21129;-62
2022/02/18 02:20:20;;;;;;;1.90;1.20;;;;;;;5.47;84.84;98103.26;1744441;80;21445;-64
2022/02/18 02:22:47;;;;;;;1.83;0.60;;;;;;;5.46;84.18;98134.16;1745036;80;21097;-62
2022/02/18 02:25:14;;;;;;;;;;;;;;;5.34;84.39;98138.98;1719058;82;21161;-62
2022/02/18 02:27:41;;;;;;;0.30;0.20;;;;;;;5.39;83.67;98140.49;1714436;82;20158;-62
2022/02/18 02:30:11;;;;;;;0.20;0.13;;;;;;;5.38;82.80;98168.72;1721025;82;21078;-64
2022/02/18 02:32:38;;;;;;;0.30;0.20;;;;;;;5.40;81.99;98179.89;1719854;82;21016;-63
2022/02/18 02:35:07;;;;;;;0.20;0.10;;;;;;;5.36;81.14;98175.24;1689980;83;21072;-65
2022/02/18 02:37:34;;;;;;;0.50;0.20;;;;;;;5.27;80.81;98202.37;1703656;82;20957;-63
2022/02/18 02:40:00;;;;;;;0.10;0.10;;;;;;;5.20;80.75;98211.65;1716928;82;21098;-61
2022/02/18 02:42:29;;;;;;;0.30;0.20;;;;;;;5.09;80.22;98211.47;1711492;82;21527;-62
2022/02/18 02:44:57;;;;;;;0.53;0.43;;;;;;;5.02;80.31;98208.31;1703298;82;21000;-61
2022/02/18 02:47:24;;;;;;;0.33;0.33;;;;;;;5.01;80.40;98220.39;1749387;81;21068;-63
2022/02/18 02:49:52;;;;;;;0.20;0.10;;;;;;;4.96;80.13;98234.73;1743752;80;21513;-62
2022/02/18 02:52:18;;;;;;;0.17;0.10;;;;;;;4.90;80.58;98242.13;1727696;81;21528;-62
2022/02/18 02:54:44;;;;;;;0.33;0.20;;;;;;;4.84;80.82;98255.14;1749673;81;20970;-63
2022/02/18 02:57:13;;;;;;;0.40;0.10;;;;;;;4.77;80.62;98254.83;1728156;80;21589;-62
2022/02/18 02:59:42;;;;;;;0.20;0.20;;;;;;;4.74;80.52;98261.30;1720149;83;21043;-61
2022/02/18 03:02:10;;;;;;;0.10;0.10;;;;;;;4.78;80.34;98267.80;1710099;82;21053;-62
2022/02/18 03:04:38;;;;;;;0.10;0.10;;;;;;;4.78;80.01;98278.36;1701244;82;21467;-62
2022/02/18 03:07:05;;;;;;;0.05;0.05;;;;;;;4.66;79.64;98275.51;1717188;82;21046;-62
2022/02/18 03:09:32;;;;;;;0.50;0.10;;;;;;;4.48;80.28;98281.38;1721191;82;21130;-63
2022/02/18 03:12:04;;;;;;;0.20;0.10;;;;;;;4.39;80.72;98287.00;1722664;82;20990;-62
2022/02/18 03:14:32;;;;;;;0.20;0.10;;;;;;;4.39;81.12;98297.07;1722875;82;21009;-62
2022/02/18 03:17:04;;;;;;;0.40;0.10;;;;;;;4.43;80.75;98304.89;1721963;83;21073;-64
2022/02/18 03:19:31;;;;;;;0.50;0.10;;;;;;;4.44;80.59;98316.25;1712868;83;21086;-66
2022/02/18 03:21:58;;;;;;;0.20;0.10;;;;;;;4.41;80.75;98316.15;1733370;82;21127;-61
2022/02/18 03:24:24;;;;;;;0.20;0.20;;;;;;;4.35;80.94;98318.27;1738513;82;21607;-66
2022/02/18 03:26:52;;;;;;;0.20;0.10;;;;;;;4.31;80.67;98326.76;1725198;82;21497;-62
2022/02/18 03:29:20;;;;;;;0.67;0.20;;;;;;;4.25;80.20;98326.52;1725002;82;21048;-62
2022/02/18 03:31:50;;;;;;;0.63;0.10;;;;;;;4.21;79.36;98335.04;1734094;82;20985;-63
2022/02/18 03:34:16;;;;;;;0.10;0.10;;;;;;;4.21;79.54;98339.80;1738723;81;20996;-61
2022/02/18 03:36:44;;;;;;;0.10;0.10;;;;;;;4.26;79.26;98347.14;1705801;82;21537;-63
2022/02/18 03:39:10;;;;;;;0.17;0.10;;;;;;;4.31;79.34;98350.49;1722757;81;21089;-62
2022/02/18 03:41:38;;;;;;;0.30;0.20;;;;;;;4.28;79.14;98353.83;1727265;81;21022;-62
2022/02/18 03:44:09;;;;;;;;;;;;;;;4.22;79.44;98355.95;1729122;81;21089;-62
2022/02/18 03:46:38;;;;;;;0.90;0.20;;;;;;;4.18;79.40;98360.47;1737271;82;20443;-63
2022/02/18 03:49:05;;;;;;;2.53;0.57;;;;;;;4.08;79.43;98355.05;1754891;80;21526;-63
2022/02/18 03:51:32;;;;;;;;;;;;;;;4.04;79.44;98361.72;1741068;81;21517;-62
2022/02/18 03:53:59;;;;;;;0.30;0.30;;;;;;;4.03;79.48;98366.70;1748638;80;20649;-61
2022/02/18 03:56:24;;;;;;;0.70;0.40;;;;;;;3.70;79.24;98311.95;1756066;80;21078;-63
2022/02/18 03:58:52;;;;;;;0.20;0.20;;;;;;;4.05;79.22;98378.34;1750894;80;21470;-62
2022/02/18 04:01:18;;;;;;;0.20;0.17;;;;;;;4.05;79.13;98361.21;1745106;80;21060;-62
2022/02/18 04:03:45;;;;;;;0.10;0.10;;;;;;;4.01;79.26;98382.38;1745216;81;20986;-62
2022/02/18 04:06:16;;;;;;;0.20;0.20;;;;;;;3.96;79.30;98389.57;1750852;80;21042;-62
2022/02/18 04:08:45;;;;;;;0.40;0.10;;;;;;;3.90;79.14;98394.30;1750415;80;21002;-62
2022/02/18 04:11:13;;;;;;;0.30;0.10;;;;;;;3.88;78.91;98393.17;1754011;80;21554;-62
2022/02/18 04:13:40;;;;;;;0.37;0.10;;;;;;;3.94;78.76;98400.81;1740921;81;22236;-61
2022/02/18 04:16:06;;;;;;;0.23;0.20;;;;;;;4.00;78.56;98409.77;1741615;80;21045;-62
2022/02/18 04:18:34;;;;;;;0.20;0.10;;;;;;;4.00;78.48;98413.73;1757945;80;20962;-65
2022/02/18 04:21:01;;;;;;;0.40;0.10;;;;;;;3.95;78.66;98425.34;1769974;81;20991;-63
2022/02/18 04:23:42;;;;;;;0.30;0.20;;;;;;;3.92;78.68;98413.86;1718138;80;20998;-61
2022/02/18 04:26:08;;;;;;;0.23;0.10;;;;;;;3.86;78.77;98426.81;1722915;82;21037;-61
2022/02/18 04:28:34;;;;;;;0.37;0.20;;;;;;;3.81;78.79;98429.72;1718607;83;21145;-64
2022/02/18 04:31:00;;;;;;;0.75;0.23;;;;;;;3.79;78.82;98437.81;1711003;82;21554;-63
2022/02/18 04:33:27;;;;;;;0.70;0.10;;;;;;;3.86;78.54;98444.43;1713179;82;21038;-64
2022/02/18 04:35:54;;;;;;;0.23;0.20;;;;;;;3.90;78.44;98449.66;1744347;80;20989;-64
2022/02/18 04:38:21;;;;;;;0.50;0.30;;;;;;;3.89;78.50;98451.97;1760489;81;21095;-68
2022/02/18 04:40:47;;;;;;;0.30;0.20;;;;;;;3.81;78.67;98456.88;1756540;80;21073;-63
2022/02/18 04:43:13;;;;;;;1.15;0.40;;;;;;;3.78;78.89;98469.62;1765298;81;21018;-62
2022/02/18 04:45:39;;;;;;;1.07;0.30;;;;;;;3.77;79.07;98467.97;1736325;80;21126;-61
2022/02/18 04:48:05;;;;;;;0.30;0.23;;;;;;;3.77;79.06;98479.83;1761279;81;21543;-62
2022/02/18 04:50:32;;;;;;;0.55;0.40;;;;;;;3.77;78.85;98490.38;1762028;81;21095;-64
2022/02/18 04:52:58;;;;;;;3.85;0.55;;;;;;;3.85;78.67;98484.98;1762195;81;21071;-61
2022/02/18 04:55:24;;;;;;;1.27;0.68;;;;;;;3.91;78.50;98494.77;1763147;80;21085;-63
2022/02/18 04:57:50;;;;;;;1.95;0.85;;;;;;;3.94;78.54;98500.98;1754110;81;22312;-62
2022/02/18 05:00:19;;;;;;;1.40;0.83;;;;;;;3.93;78.70;98512.52;1755980;80;21085;-62
2022/02/18 05:02:48;;;;;;;1.80;1.20;;;;;;;3.88;78.69;98513.58;1757814;81;21002;-66
2022/02/18 05:05:14;;;;;;;1.90;1.60;;;;;;;3.85;78.62;98520.56;1761622;81;21045;-64
2022/02/18 05:07:40;;;;;;;;;;;;;;;3.80;78.76;98532.17;1767532;80;21621;-62
2022/02/18 05:10:09;;;;;;;1.77;1.67;;;;;;;3.80;78.84;98538.76;1758455;80;20155;-62
2022/02/18 05:12:37;;;;;;;2.23;2.00;;;;;;;3.80;78.82;98542.72;1758695;80;21088;-64
2022/02/18 05:15:05;;;;;;;2.70;2.40;;;;;;;3.82;78.76;98547.29;1766090;80;21046;-62
2022/02/18 05:17:31;;;;;;;3.00;2.77;;;;;;;3.83;78.91;98550.25;1759605;80;20987;-64
2022/02/18 05:19:58;;;;;;;2.75;2.52;;;;;;;3.81;79.13;98556.22;1769942;80;21069;-63
2022/02/18 05:22:25;;;;;;;2.20;2.00;;;;;;;3.80;79.32;98561.97;1761221;80;21070;-64
2022/02/18 05:24:51;;;;;;;2.62;2.15;;;;;;;3.80;79.45;98567.23;1754897;80;20963;-63
2022/02/18 05:27:17;;;;;;;2.10;1.02;;;;;;;3.83;79.28;98576.61;1764215;81;21073;-63
2022/02/18 05:29:44;;;;;;;2.30;1.50;;;;;;;3.87;79.09;98576.55;1736196;82;21522;-63
2022/02/18 05:32:11;;;;;;;2.03;1.83;;;;;;;3.91;78.87;98587.02;1764465;81;21479;-64
2022/02/18 05:34:38;;;;;;;3.00;1.93;;;;;;;3.89;78.85;98594.30;1757629;81;21030;-65
2022/02/18 05:37:05;;;;;;;2.70;1.60;;;;;;;3.89;78.94;98599.06;1757100;81;21559;-63
2022/02/18 05:39:33;;;;;;;2.97;1.90;;;;;;;3.85;78.51;98594.37;1762902;81;21520;-63
2022/02/18 05:42:00;;;;;;;2.07;1.83;;;;;;;3.81;78.68;98609.73;1757939;81;21051;-62
2022/02/18 05:44:31;;;;;;;1.40;1.25;;;;;;;3.79;78.71;98606.98;1758636;80;21347;-64
2022/02/18 05:46:54;;;;;;;2.53;1.53;;;;;;;3.82;78.47;98611.35;1762193;81;21046;-65
2022/02/18 05:49:20;;;;;;;2.15;1.67;;;;;;;3.89;78.20;98619.34;1767760;80;21117;-64
2022/02/18 05:51:46;;;;;;;1.77;1.52;;;;;;;3.94;77.96;98619.61;1767782;80;21042;-66
2022/02/18 05:54:14;;;;;;;1.63;1.40;;;;;;;3.96;77.88;98624.70;1750195;80;21083;-63
2022/02/18 05:56:42;;;;;;;3.40;1.90;;;;;;;3.94;77.73;98627.99;1762874;80;21074;-64
2022/02/18 05:59:08;;;;;;;1.90;1.80;;;;;;;3.92;77.67;98628.20;1744226;82;21009;-63
2022/02/18 06:03:15;;;;;;;2.63;2.20;;;;;;;3.92;77.17;98643.18;1775870;79;22287;-62
2022/02/18 06:05:42;;;;;;;2.98;2.65;;;;;;;3.89;77.02;98647.83;1733319;81;21014;-63
2022/02/18 06:08:10;;;;;;;2.40;2.00;;;;;;;3.95;76.85;98650.22;1732166;81;21025;-61
2022/02/18 06:10:38;;;;;;;4.33;3.30;;;;;;;3.97;76.70;98650.84;1737340;80;21581;-62
2022/02/18 06:13:05;;;;;;;6.08;3.90;;;;;;;3.94;76.85;98655.19;1704938;82;20996;-62
2022/02/18 06:15:34;;;;;;;4.83;3.50;;;;;;;3.94;76.95;98664.42;1699745;83;21145;-61
2022/02/18 06:18:00;;;;;;;6.97;3.73;;;;;;;3.92;76.56;98663.79;1686290;83;21088;-63
2022/02/18 06:20:27;;;;;;;5.33;3.40;;;;;;;3.90;76.65;98672.39;1695722;83;21029;-63
2022/02/18 06:22:53;;;;;;;5.80;3.22;;;;;;;3.94;76.61;98681.55;1688356;83;21017;-65
2022/02/18 06:25:19;;;;;;;5.62;3.90;;;;;;;4.02;76.18;98681.43;1723597;81;21030;-60
2022/02/18 06:27:45;;;;;;;3.75;2.92;;;;;;;4.13;75.95;98687.23;1729641;82;21078;-62
2022/02/18 06:30:13;;;;;;;3.10;2.57;;;;;;;4.19;76.02;98696.52;1657110;84;21042;-61
2022/02/18 06:32:39;;;;;;;3.52;3.22;;;;;;;4.24;75.93;98697.29;1681506;84;21138;-59
2022/02/18 06:35:07;;;;;;;2.75;2.15;;;;;;;4.26;75.81;98704.00;1661272;84;21052;-67
2022/02/18 06:37:34;;;;;;;4.90;3.60;;;;;;;4.26;74.38;98708.47;1632097;86;22114;-64
2022/02/18 06:40:00;;;;;;;2.50;1.82;;;;;;;4.21;74.36;98715.60;1623744;86;21581;-65
2022/02/18 06:42:26;;;;;;;4.70;2.22;;;;;;;4.23;74.43;98710.14;1639740;86;21090;-66
2022/02/18 06:44:52;;;;;;;2.00;1.52;;;;;;;4.24;75.01;98726.30;1632415;86;21033;-66
2022/02/18 06:47:18;;;;;;;1.12;1.00;;;;;;;4.25;74.96;98732.69;1644520;85;20993;-67
2022/02/18 06:49:46;;;;;;;2.53;1.53;;;;;;;4.30;74.71;98738.73;1653744;85;21619;-62
2022/02/18 06:52:12;;;;;;;4.17;2.80;;;;;;;4.36;74.61;98738.48;1656750;84;21529;-63
2022/02/18 06:54:38;;;;;;;3.02;2.10;;;;;;;4.42;74.35;98746.96;1661956;85;21081;-63
2022/02/18 06:57:05;;;;;;;2.62;2.05;;;;;;;4.11;73.80;98691.38;1667962;85;21104;-69
2022/02/18 06:59:32;;;;;;;2.87;1.73;;;;;;;4.62;73.08;98749.81;1647916;85;21069;-69
2022/02/18 07:02:00;;;;;;;2.50;2.30;;;;;;;4.68;72.94;98749.05;1657276;85;21687;-68
2022/02/18 07:04:28;;;;;;;3.47;1.40;;;;;;;4.67;73.02;98750.87;1645889;85;21032;-72
2022/02/18 07:06:54;;;;;;;3.47;1.63;;;;;;;4.69;72.79;98755.97;1663696;85;21049;-64
2022/02/18 07:09:21;;;;;;;3.30;1.80;;;;;;;4.68;71.91;98751.69;1636304;85;21076;-64
2022/02/18 07:11:47;;;;;;;2.70;1.80;;;;;;;4.66;72.19;98755.02;1649081;85;21062;-65
2022/02/18 07:14:15;;;;;;;3.83;2.17;;;;;;;4.63;72.05;98758.02;1647015;86;21109;-65
2022/02/18 07:16:42;;;;;;;;;;;;;;;4.75;72.14;98759.67;1637756;86;21070;-67
2022/02/18 07:19:12;;;;;;;3.57;2.17;;;;;;;4.82;71.54;98762.69;1634076;86;20135;-65
2022/02/18 07:21:39;;;;;;;3.60;2.07;;;;;;;4.78;71.77;98773.28;1640273;86;21247;-66
2022/02/18 07:24:08;;;;;;;3.87;1.50;;;;;;;4.81;72.00;98771.59;1627491;86;21088;-66
2022/02/18 07:26:35;;;;;;;6.53;3.77;;;;;;;4.88;72.05;98777.76;1615816;86;21555;-67
2022/02/18 07:29:02;;;;;;;3.70;2.83;;;;;;;4.95;71.41;98780.44;1619539;86;21598;-65
2022/02/18 07:31:29;;;;;;;1.83;1.63;;;;;;;5.03;70.70;98786.92;1637908;85;21160;-64
2022/02/18 07:33:56;;;;;;;4.30;1.92;;;;;;;5.23;70.74;98788.39;1643310;84;21095;-71
2022/02/18 07:36:22;;;;;;;2.20;1.63;;;;;;;5.40;70.40;98787.59;1679271;84;21030;-67
2022/02/18 07:38:48;;;;;;;2.45;1.82;;;;;;;5.48;70.00;98796.39;1678980;84;21051;-65
2022/02/18 07:41:14;;;;;;;3.92;3.08;;;;;;;5.58;69.37;98802.98;1678584;84;21111;-64
2022/02/18 07:43:40;;;;;;;5.30;2.90;;;;;;;5.65;69.39;98807.81;1681278;84;21603;-72
2022/02/18 07:46:08;;;;;;;3.10;2.80;;;;;;;5.71;68.87;98803.57;1653601;84;21027;-67
2022/02/18 07:48:34;;;;;;;4.97;3.50;;;;;;;5.69;68.16;98807.40;1647947;85;21069;-65
2022/02/18 07:51:03;;;;;;;6.50;3.37;;;;;;;5.64;68.00;98813.28;1652900;85;21538;-64
2022/02/18 07:53:29;;;;;;;4.53;3.13;;;;;;;5.60;68.58;98810.20;1683146;84;21062;-64
2022/02/18 07:55:55;;;;;;;3.05;2.62;;;;;;;5.63;68.32;98813.80;1678302;82;21040;-65
2022/02/18 07:58:21;;;;;;;6.40;3.00;;;;;;;5.74;68.22;98812.93;1676579;84;21504;-61
2022/02/18 08:00:48;;;;;;;3.98;3.58;;;;;;;5.80;68.04;98809.02;1686156;82;21662;-61
2022/02/18 08:03:15;;;;;;;6.50;2.80;;;;;;;5.78;67.67;98815.01;1709991;82;21156;-62
2022/02/18 08:05:41;;;;;;;3.35;3.05;;;;;;;5.74;68.31;98820.34;1709804;82;21013;-62
2022/02/18 08:08:07;;;;;;;3.65;2.95;;;;;;;5.79;68.24;98823.75;1707797;82;21090;-62
2022/02/18 08:10:34;;;;;;;3.17;2.47;;;;;;;5.82;67.57;98812.77;1709024;82;21020;-62
2022/02/18 08:13:01;;;;;;;;;;;;;;;5.87;67.61;98812.20;1708490;82;21093;-63
2022/02/18 08:15:27;;;;;;;5.33;2.30;;;;;;;5.89;67.70;98809.66;1711950;82;20149;-64
2022/02/18 08:17:53;;;;;;;3.83;1.98;;;;;;;5.88;67.25;98809.84;1711297;82;21494;-63
2022/02/18 08:20:21;;;;;;;4.07;2.60;;;;;;;5.93;67.33;98812.22;1703547;82;21544;-66
2022/02/18 08:22:49;;;;;;;5.73;3.17;;;;;;;6.02;67.38;98816.37;1706781;82;21612;-65
2022/02/18 08:25:15;;;;;;;6.95;3.20;;;;;;;6.16;67.04;98819.91;1712364;82;21014;-65
2022/02/18 08:27:44;;;;;;;;;;;;;;;6.23;65.92;98818.59;1700777;82;21122;-66
2022/02/18 08:30:12;;;;;;;5.53;3.57;;;;;;;6.17;66.15;98828.14;1710756;82;20235;-64
2022/02/18 08:32:40;;;;;;;4.60;3.00;;;;;;;5.99;66.43;98827.84;1704671;82;21082;-65
2022/02/18 08:35:07;;;;;;;;;;;;;;;5.95;67.10;98827.89;1701683;82;21088;-65
2022/02/18 08:37:34;;;;;;;5.58;2.87;;;;;;;6.01;66.98;98830.62;1699182;82;20170;-66
2022/02/18 08:40:01;;;;;;;5.28;2.65;;;;;;;6.06;66.79;98833.17;1702159;82;21556;-64
2022/02/18 08:42:27;;;;;;;2.85;2.20;;;;;;;6.12;66.05;98840.32;1702695;82;20963;-64
2022/02/18 08:44:53;;;;;;;5.33;2.37;;;;;;;6.14;66.03;98852.84;1695444;82;21097;-70
2022/02/18 08:47:19;;;;;;;3.20;2.02;;;;;;;6.17;65.86;98850.63;1668062;84;21082;-68
2022/02/18 08:49:46;;;;;;;4.12;2.58;;;;;;;6.16;65.89;98849.49;1674305;84;21101;-65
2022/02/18 08:52:12;;;;;;;2.12;1.92;;;;;;;6.13;66.02;98855.20;1670850;84;21057;-64
2022/02/18 08:54:39;;;;;;;3.10;1.82;;;;;;;6.13;65.54;98857.84;1678011;84;21006;-63
2022/02/18 08:57:05;;;;;;;4.10;1.90;;;;;;;6.09;66.01;98862.70;1675291;83;21004;-64
2022/02/18 08:59:32;;;;;;;3.17;2.10;;;;;;;5.99;66.01;98868.35;1674531;84;20999;-64
2022/02/18 09:02:00;;;;;;;4.27;2.10;;;;;;;5.90;66.46;98874.77;1678934;84;21141;-64
2022/02/18 09:04:26;;;;;;;6.47;2.37;;;;;;;5.82;66.40;98876.22;1675739;84;21027;-65
2022/02/18 09:06:52;;;;;;;2.83;2.45;;;;;;;5.79;66.80;98872.66;1672779;84;21116;-66
2022/02/18 09:09:18;;;;;;;4.17;2.20;;;;;;;5.80;66.94;98871.64;1675111;84;21110;-65
2022/02/18 09:11:45;;;;;;;3.77;2.03;;;;;;;5.85;66.90;98874.53;1677637;84;21389;-66
2022/02/18 09:14:16;;;;;;;2.50;2.13;;;;;;;5.86;66.71;98877.50;1674448;84;21040;-65
2022/02/18 09:16:44;;;;;;;3.07;1.87;;;;;;;5.95;66.76;98873.72;1670868;84;21083;-65
2022/02/18 09:19:10;;;;;;;6.37;2.60;;;;;;;6.04;66.21;98883.11;1677947;84;22165;-63
2022/02/18 09:21:37;;;;;;;2.85;2.12;;;;;;;6.09;66.23;98887.03;1677065;84;21519;-65
2022/02/18 09:24:06;;;;;;;5.17;2.07;;;;;;;6.16;66.25;98894.47;1672923;84;21079;-64
2022/02/18 09:26:32;;;;;;;6.30;2.43;;;;;;;6.21;66.02;98887.58;1681640;84;21556;-66
2022/02/18 09:28:59;;;;;;;2.50;2.00;;;;;;;6.29;66.30;98893.73;1669785;84;21105;-66
2022/02/18 09:31:25;;;;;;;4.95;2.42;;;;;;;6.33;65.57;98901.09;1679004;84;21518;-66
2022/02/18 09:33:52;;;;;;;4.65;3.50;;;;;;;6.32;65.60;98900.77;1674802;84;21091;-66
2022/02/18 09:36:19;;;;;;;4.63;2.67;;;;;;;6.34;65.72;98904.04;1683284;84;21056;-65
2022/02/18 09:38:46;;;;;;;3.52;2.20;;;;;;;6.34;65.49;98906.69;1688457;84;21044;-64
2022/02/18 09:41:13;;;;;;;2.70;1.37;;;;;;;6.37;65.60;98912.92;1677181;84;20989;-65
2022/02/18 09:43:41;;;;;;;4.50;2.58;;;;;;;6.42;65.53;98922.42;1668817;84;21096;-65
2022/02/18 09:46:09;;;;;;;4.33;2.23;;;;;;;6.45;65.77;98906.64;1639190;85;21604;-65
2022/02/18 09:48:38;;;;;;;2.57;1.37;;;;;;;6.56;65.20;98915.87;1629128;86;21597;-63
2022/02/18 09:51:07;;;;;;;4.97;1.90;;;;;;;6.66;64.29;98912.84;1630228;86;21641;-65
2022/02/18 09:53:34;;;;;;;7.97;1.97;;;;;;;6.55;63.95;98917.67;1632769;86;21065;-65
2022/02/18 09:56:02;;;;;;;3.90;2.07;;;;;;;6.49;64.33;98929.58;1645192;84;21083;-66
2022/02/18 09:58:32;;;;;;;3.97;2.70;;;;;;;6.51;64.69;98935.48;1661010;84;21023;-66
2022/02/18 10:01:01;;;;;;;3.47;2.43;;;;;;;6.50;64.77;98936.48;1669342;84;21040;-64
2022/02/18 10:03:28;;;;;;;2.00;1.80;;;;;;;6.53;64.63;98928.97;1666276;84;21097;-66
2022/02/18 10:05:54;;;;;;;4.10;2.35;;;;;;;6.38;63.68;98919.02;1661871;84;21040;-64
2022/02/18 10:08:22;;;;;;;2.77;2.27;;;;;;;6.29;63.88;98929.45;1669170;84;20993;-66
2022/02/18 10:11:06;;;;;;;5.90;2.60;;;;;;;6.22;64.49;98932.89;1669751;84;21097;-66
2022/02/18 10:13:42;;;;;;;5.07;2.47;;;;;;;6.24;64.98;98934.02;1661989;84;21005;-66
2022/02/18 10:16:22;;;;;;;3.60;2.30;;;;;;;6.33;64.95;98941.28;1669415;84;21068;-64
2022/02/18 10:18:54;;;;;;;4.00;2.10;;;;;;;6.45;65.19;98939.73;1658636;84;20979;-66
2022/02/18 10:21:28;;;;;;;3.03;1.60;;;;;;;6.61;64.19;98945.19;1660186;84;20994;-64
2022/02/18 10:24:15;;;;;;;4.10;1.23;;;;;;;6.76;63.61;98935.30;1668841;84;21068;-66
2022/02/18 10:26:51;;;;;;;4.97;1.30;;;;;;;6.91;63.18;98939.13;1651553;84;21874;-65
2022/02/18 10:29:29;;;;;;;4.08;2.22;;;;;;;7.06;62.37;98942.91;1668037;84;21140;-66
2022/02/18 10:32:14;;;;;;;3.73;2.37;;;;;;;7.17;61.98;98944.98;1670288;84;21036;-65
2022/02/18 10:34:55;;;;;;;2.00;1.80;;;;;;;7.26;61.54;98951.45;1654266;84;21116;-71
2022/02/18 10:37:24;;;;;;;1.93;1.20;;;;;;;7.35;60.56;98952.89;1670162;84;21056;-67
2022/02/18 10:39:52;;;;;;;6.50;2.10;;;;;;;7.37;60.85;98945.03;1658752;84;21294;-65
2022/02/18 10:42:21;;;;;;;2.90;1.77;;;;;;;7.43;61.05;98950.56;1664869;84;21060;-64
2022/02/18 10:44:54;;;;;;;4.30;1.73;;;;;;;7.44;60.22;98958.31;1665080;84;21536;-67
2022/02/18 10:47:21;;;;;;;1.40;1.30;;;;;;;7.44;59.77;98961.45;1660239;84;21574;-65
2022/02/18 10:49:47;;;;;;;3.47;2.07;;;;;;;7.45;59.58;98963.91;1658406;84;21309;-65
2022/02/18 10:52:18;;;;;;;3.47;1.97;;;;;;;7.49;58.89;98955.05;1659212;84;21103;-66
2022/02/18 10:54:46;;;;;;;1.90;1.50;;;;;;;7.44;58.58;98970.24;1662770;84;22197;-66
2022/02/18 10:57:24;;;;;;;2.37;1.30;;;;;;;7.35;58.71;98968.28;1617125;84;21037;-67
2022/02/18 10:59:54;;;;;;;2.53;1.10;;;;;;;7.32;58.39;98975.30;1596146;89;21050;-67
2022/02/18 11:02:45;;;;;;;2.83;1.37;;;;;;;7.27;58.13;98975.59;1628410;87;21036;-67
2022/02/18 11:05:27;;;;;;;1.60;1.20;;;;;;;7.20;58.28;98984.86;1648467;85;21531;-66
2022/02/18 11:07:55;;;;;;;2.27;2.07;;;;;;;7.16;59.13;98984.44;1642953;85;22014;-66
2022/02/18 11:10:38;;;;;;;3.77;1.73;;;;;;;7.15;59.07;98990.74;1639280;85;21097;-64
2022/02/18 11:13:06;;;;;;;2.17;1.80;;;;;;;6.76;59.22;98924.71;1644045;85;21126;-65
2022/02/18 11:15:36;;;;;;;3.03;2.10;;;;;;;7.14;59.28;98993.10;1647272;85;21389;-63
2022/02/18 11:18:03;;;;;;;3.03;0.77;;;;;;;7.13;59.33;98995.43;1647909;85;21023;-63
2022/02/18 11:20:31;;;;;;;1.43;0.60;;;;;;;7.02;57.85;99005.27;1649713;85;21591;-65
2022/02/18 11:22:58;;;;;;;1.47;1.07;;;;;;;6.92;58.15;99008.30;1648614;85;21049;-64
2022/02/18 11:25:25;;;;;;;3.70;1.20;;;;;;;6.88;58.35;99008.90;1650090;85;21058;-65
2022/02/18 11:27:53;;;;;;;2.80;1.13;;;;;;;6.88;58.89;99011.55;1648525;85;21055;-64
2022/02/18 11:30:20;;;;;;;4.20;0.70;;;;;;;6.90;58.75;99017.46;1650107;85;21063;-64
2022/02/18 11:33:00;;;;;;;4.30;0.70;;;;;;;6.92;58.62;99016.76;1649199;85;21051;-67
2022/02/18 11:35:44;;;;;;;2.20;0.63;;;;;;;6.92;58.89;99019.41;1649356;85;21162;-65
2022/02/18 11:38:35;;;;;;;2.83;0.80;;;;;;;6.92;59.57;99024.19;1634591;85;21098;-66
2022/02/18 11:41:33;;;;;;;1.80;1.60;;;;;;;6.90;59.95;99029.38;1660829;85;21519;-68
2022/02/18 11:44:02;;;;;;;4.00;1.40;;;;;;;6.88;61.20;99027.44;1645803;85;21054;-65
2022/02/18 11:46:29;;;;;;;5.13;2.03;;;;;;;6.85;61.55;99031.28;1646148;85;22019;-63
2022/02/18 11:48:59;;;;;;;1.55;1.42;;;;;;;6.87;62.09;99035.06;1650808;85;21507;-63
2022/02/18 11:51:29;;;;;;;2.63;1.60;;;;;;;6.93;61.82;99039.08;1645276;85;21270;-64